ENVR/VRY METAR and TAF weather

Enter ICAO airport designator
Station Type Date Time Source
ENVR METAR 2018/12/12 14:50 UTC NOAA

ENVR 121450Z 20020KT 9999 -SHRA FEW011 SCT040 BKN060 05/02 Q1028


Station Type Date Time Source
ENVR Decoded METAR 2018/12/12 14:50 UTC NOAA

Station name not available
Dec 12, 2018 - 09:50 AM EST / 2018.12.12 1450 UTC
Wind: from the SSW (200 degrees) at 23 MPH (20 KT):0
Visibility: greater than 7 mile(s):0
Sky conditions: mostly cloudy
Weather: light rain showers
Temperature: 41 F (5 C)
Dew Point: 35 F (2 C)
Relative Humidity: 80%
Pressure (altimeter): 30.36 in. Hg (1028 hPa)
ob: ENVR 121450Z 20020KT 9999 -SHRA FEW011 SCT040 BKN060 05/02 Q1028
cycle: 15

Station Type Date Time Source
ENVR TAF UTC NOAA

Error!


Example: see airport list